<?xml version="1.0" encoding="UTF-8" standalone="no" ?>
<gpx xmlns="http://www.topografix.com/GPX/1/1" xmlns:xsi="http://www.w3.org/2001/XMLSchema-instance" xsi:schemaLocation="http://www.topografix.com/GPX/1/1 http://www.topografix.com/GPX/1/1/gpx.xsd" version="1.1" creator="VisuGPX - https://www.visugpx.com">
  <metadata>
    <name>Tour d'Europe: étape 036 complet</name>
  </metadata>
  <trk>
    <name><![CDATA[à Kristiansund]]></name>
    <trkseg>
      <trkpt lat="63.12495" lon="7.72762">
        <ele>63.583456</ele>
        <time>2020-08-03T12:18:11.674Z</time>
      </trkpt>
      <trkpt lat="63.12486" lon="7.72757">
        <ele>63.583456</ele>
        <time>2020-08-03T12:21:06.567Z</time>
      </trkpt>
      <trkpt lat="63.12479" lon="7.72773">
        <ele>63.583456</ele>
        <time>2020-08-03T12:21:10.598Z</time>
      </trkpt>
      <trkpt lat="63.12484" lon="7.72792">
        <ele>63.583456</ele>
        <time>2020-08-03T12:21:15.587Z</time>
      </trkpt>
      <trkpt lat="63.12486" lon="7.72814">
        <ele>63.583456</ele>
        <time>2020-08-03T12:21:20.551Z</time>
      </trkpt>
      <trkpt lat="63.12477" lon="7.72807">
        <ele>63.583456</ele>
        <time>2020-08-03T12:21:24.565Z</time>
      </trkpt>
      <trkpt lat="63.12471" lon="7.72788">
        <ele>63.583456</ele>
        <time>2020-08-03T12:21:27.563Z</time>
      </trkpt>
      <trkpt lat="63.12466" lon="7.72767">
        <ele>63.583456</ele>
        <time>2020-08-03T12:21:31.563Z</time>
      </trkpt>
      <trkpt lat="63.12461" lon="7.72748">
        <ele>63.583456</ele>
        <time>2020-08-03T12:21:37.560Z</time>
      </trkpt>
      <trkpt lat="63.12454" lon="7.72734">
        <ele>63.583456</ele>
        <time>2020-08-03T12:21:43.581Z</time>
      </trkpt>
      <trkpt lat="63.12445" lon="7.72726">
        <ele>63.751733</ele>
        <time>2020-08-03T12:21:48.566Z</time>
      </trkpt>
      <trkpt lat="63.12436" lon="7.72726">
        <ele>63.943422</ele>
        <time>2020-08-03T12:21:54.577Z</time>
      </trkpt>
      <trkpt lat="63.12426" lon="7.72727">
        <ele>64.13517</ele>
        <time>2020-08-03T12:22:00.555Z</time>
      </trkpt>
      <trkpt lat="63.12417" lon="7.72728">
        <ele>64.32106</ele>
        <time>2020-08-03T12:22:06.594Z</time>
      </trkpt>
      <trkpt lat="63.12407" lon="7.72732">
        <ele>64.507087</ele>
        <time>2020-08-03T12:22:12.573Z</time>
      </trkpt>
      <trkpt lat="63.12398" lon="7.72737">
        <ele>64.710823</ele>
        <time>2020-08-03T12:22:18.579Z</time>
      </trkpt>
      <trkpt lat="63.12388" lon="7.72741">
        <ele>64.911076</ele>
        <time>2020-08-03T12:22:24.580Z</time>
      </trkpt>
      <trkpt lat="63.12379" lon="7.72745">
        <ele>65.091767</ele>
        <time>2020-08-03T12:22:30.578Z</time>
      </trkpt>
      <trkpt lat="63.12369" lon="7.72755">
        <ele>65.30606</ele>
        <time>2020-08-03T12:22:36.611Z</time>
      </trkpt>
      <trkpt lat="63.12359" lon="7.72763">
        <ele>65.527045</ele>
        <time>2020-08-03T12:22:41.575Z</time>
      </trkpt>
      <trkpt lat="63.1235" lon="7.72776">
        <ele>65.723788</ele>
        <time>2020-08-03T12:22:45.595Z</time>
      </trkpt>
      <trkpt lat="63.12345" lon="7.72793">
        <ele>65.916513</ele>
        <time>2020-08-03T12:22:49.569Z</time>
      </trkpt>
      <trkpt lat="63.1234" lon="7.72812">
        <ele>66.115115</ele>
        <time>2020-08-03T12:22:53.563Z</time>
      </trkpt>
      <trkpt lat="63.12338" lon="7.72834">
        <ele>66.317984</ele>
        <time>2020-08-03T12:22:57.582Z</time>
      </trkpt>
      <trkpt lat="63.12336" lon="7.72854">
        <ele>66.503759</ele>
        <time>2020-08-03T12:23:01.566Z</time>
      </trkpt>
      <trkpt lat="63.12334" lon="7.72875">
        <ele>66.696065</ele>
        <time>2020-08-03T12:23:05.583Z</time>
      </trkpt>
      <trkpt lat="63.12331" lon="7.72898">
        <ele>66.910618</ele>
        <time>2020-08-03T12:23:10.603Z</time>
      </trkpt>
      <trkpt lat="63.1233" lon="7.72921">
        <ele>67.120426</ele>
        <time>2020-08-03T12:23:16.575Z</time>
      </trkpt>
      <trkpt lat="63.12328" lon="7.72941">
        <ele>67.488174</ele>
        <time>2020-08-03T12:23:21.619Z</time>
      </trkpt>
      <trkpt lat="63.12325" lon="7.72964">
        <ele>67.99606</ele>
        <time>2020-08-03T12:23:27.575Z</time>
      </trkpt>
      <trkpt lat="63.12324" lon="7.72984">
        <ele>68.432085</ele>
        <time>2020-08-03T12:23:33.569Z</time>
      </trkpt>
      <trkpt lat="63.12324" lon="7.73004">
        <ele>68.863338</ele>
        <time>2020-08-03T12:23:39.569Z</time>
      </trkpt>
      <trkpt lat="63.12324" lon="7.73025">
        <ele>69.336487</ele>
        <time>2020-08-03T12:23:45.569Z</time>
      </trkpt>
      <trkpt lat="63.12324" lon="7.73047">
        <ele>69.807467</ele>
        <time>2020-08-03T12:23:51.569Z</time>
      </trkpt>
      <trkpt lat="63.12324" lon="7.7307">
        <ele>70.306638</ele>
        <time>2020-08-03T12:23:57.591Z</time>
      </trkpt>
      <trkpt lat="63.12321" lon="7.73089">
        <ele>70.745796</ele>
        <time>2020-08-03T12:24:02.614Z</time>
      </trkpt>
      <trkpt lat="63.1232" lon="7.7311">
        <ele>71.19854</ele>
        <time>2020-08-03T12:24:07.573Z</time>
      </trkpt>
      <trkpt lat="63.12321" lon="7.73133">
        <ele>71.69813</ele>
        <time>2020-08-03T12:24:12.574Z</time>
      </trkpt>
      <trkpt lat="63.12324" lon="7.73154">
        <ele>72.186127</ele>
        <time>2020-08-03T12:24:16.576Z</time>
      </trkpt>
      <trkpt lat="63.1233" lon="7.73175">
        <ele>72.720671</ele>
        <time>2020-08-03T12:24:20.587Z</time>
      </trkpt>
      <trkpt lat="63.12336" lon="7.73195">
        <ele>73.231031</ele>
        <time>2020-08-03T12:24:24.599Z</time>
      </trkpt>
      <trkpt lat="63.1234" lon="7.73216">
        <ele>73.734094</ele>
        <time>2020-08-03T12:24:28.570Z</time>
      </trkpt>
      <trkpt lat="63.1234" lon="7.73239">
        <ele>74.234183</ele>
        <time>2020-08-03T12:24:32.567Z</time>
      </trkpt>
      <trkpt lat="63.12335" lon="7.73262">
        <ele>74.780029</ele>
        <time>2020-08-03T12:24:36.598Z</time>
      </trkpt>
      <trkpt lat="63.12329" lon="7.73282">
        <ele>75.302561</ele>
        <time>2020-08-03T12:24:40.580Z</time>
      </trkpt>
      <trkpt lat="63.12324" lon="7.73305">
        <ele>75.82697</ele>
        <time>2020-08-03T12:24:44.579Z</time>
      </trkpt>
      <trkpt lat="63.12322" lon="7.73327">
        <ele>76.006526</ele>
        <time>2020-08-03T12:24:48.565Z</time>
      </trkpt>
      <trkpt lat="63.1232" lon="7.7335">
        <ele>76.195426</ele>
        <time>2020-08-03T12:24:52.565Z</time>
      </trkpt>
      <trkpt lat="63.12319" lon="7.7337">
        <ele>76.361002</ele>
        <time>2020-08-03T12:24:55.572Z</time>
      </trkpt>
      <trkpt lat="63.12317" lon="7.7339">
        <ele>76.527887</ele>
        <time>2020-08-03T12:24:58.578Z</time>
      </trkpt>
      <trkpt lat="63.12316" lon="7.73416">
        <ele>76.738494</ele>
        <time>2020-08-03T12:25:02.570Z</time>
      </trkpt>
      <trkpt lat="63.12316" lon="7.73441">
        <ele>76.940115</ele>
        <time>2020-08-03T12:25:06.569Z</time>
      </trkpt>
      <trkpt lat="63.12314" lon="7.73465">
        <ele>77.136226</ele>
        <time>2020-08-03T12:25:10.598Z</time>
      </trkpt>
      <trkpt lat="63.12313" lon="7.73484">
        <ele>77.298091</ele>
        <time>2020-08-03T12:25:13.565Z</time>
      </trkpt>
      <trkpt lat="63.12311" lon="7.73506">
        <ele>77.474673</ele>
        <time>2020-08-03T12:25:16.608Z</time>
      </trkpt>
      <trkpt lat="63.12309" lon="7.73526">
        <ele>77.649488</ele>
        <time>2020-08-03T12:25:19.583Z</time>
      </trkpt>
      <trkpt lat="63.12307" lon="7.73548">
        <ele>77.828788</ele>
        <time>2020-08-03T12:25:22.585Z</time>
      </trkpt>
      <trkpt lat="63.12305" lon="7.73569">
        <ele>78.002043</ele>
        <time>2020-08-03T12:25:25.592Z</time>
      </trkpt>
      <trkpt lat="63.12301" lon="7.73594">
        <ele>78.215057</ele>
        <time>2020-08-03T12:25:29.566Z</time>
      </trkpt>
      <trkpt lat="63.12299" lon="7.73614">
        <ele>78.387028</ele>
        <time>2020-08-03T12:25:32.583Z</time>
      </trkpt>
      <trkpt lat="63.12296" lon="7.73635">
        <ele>78.565792</ele>
        <time>2020-08-03T12:25:35.606Z</time>
      </trkpt>
      <trkpt lat="63.12292" lon="7.7366">
        <ele>78.775384</ele>
        <time>2020-08-03T12:25:39.573Z</time>
      </trkpt>
      <trkpt lat="63.12288" lon="7.73682">
        <ele>78.973218</ele>
        <time>2020-08-03T12:25:43.587Z</time>
      </trkpt>
      <trkpt lat="63.12284" lon="7.73706">
        <ele>79.337758</ele>
        <time>2020-08-03T12:25:47.601Z</time>
      </trkpt>
      <trkpt lat="63.12281" lon="7.73727">
        <ele>79.7179</ele>
        <time>2020-08-03T12:25:51.577Z</time>
      </trkpt>
      <trkpt lat="63.12278" lon="7.73749">
        <ele>80.103904</ele>
        <time>2020-08-03T12:25:55.578Z</time>
      </trkpt>
      <trkpt lat="63.12275" lon="7.73771">
        <ele>80.511567</ele>
        <time>2020-08-03T12:25:59.582Z</time>
      </trkpt>
      <trkpt lat="63.12271" lon="7.73793">
        <ele>80.915514</ele>
        <time>2020-08-03T12:26:03.589Z</time>
      </trkpt>
      <trkpt lat="63.12267" lon="7.73816">
        <ele>81.347454</ele>
        <time>2020-08-03T12:26:07.585Z</time>
      </trkpt>
      <trkpt lat="63.12262" lon="7.7384">
        <ele>81.795136</ele>
        <time>2020-08-03T12:26:11.595Z</time>
      </trkpt>
      <trkpt lat="63.12259" lon="7.73859">
        <ele>82.147195</ele>
        <time>2020-08-03T12:26:14.588Z</time>
      </trkpt>
      <trkpt lat="63.12254" lon="7.73877">
        <ele>82.505443</ele>
        <time>2020-08-03T12:26:17.566Z</time>
      </trkpt>
      <trkpt lat="63.1225" lon="7.73897">
        <ele>82.882657</ele>
        <time>2020-08-03T12:26:20.630Z</time>
      </trkpt>
      <trkpt lat="63.12246" lon="7.73917">
        <ele>83.256543</ele>
        <time>2020-08-03T12:26:23.594Z</time>
      </trkpt>
      <trkpt lat="63.12242" lon="7.73937">
        <ele>83.632423</ele>
        <time>2020-08-03T12:26:26.653Z</time>
      </trkpt>
      <trkpt lat="63.12239" lon="7.73957">
        <ele>84.006517</ele>
        <time>2020-08-03T12:26:29.565Z</time>
      </trkpt>
      <trkpt lat="63.12235" lon="7.73977">
        <ele>84.371377</ele>
        <time>2020-08-03T12:26:32.571Z</time>
      </trkpt>
      <trkpt lat="63.12232" lon="7.73996">
        <ele>84.728071</ele>
        <time>2020-08-03T12:26:35.574Z</time>
      </trkpt>
      <trkpt lat="63.12229" lon="7.74015">
        <ele>85.077015</ele>
        <time>2020-08-03T12:26:38.572Z</time>
      </trkpt>
      <trkpt lat="63.12225" lon="7.74039">
        <ele>85.520246</ele>
        <time>2020-08-03T12:26:42.597Z</time>
      </trkpt>
      <trkpt lat="63.1222" lon="7.74063">
        <ele>85.937192</ele>
        <time>2020-08-03T12:26:46.598Z</time>
      </trkpt>
      <trkpt lat="63.12214" lon="7.74086">
        <ele>86.188155</ele>
        <time>2020-08-03T12:26:50.564Z</time>
      </trkpt>
      <trkpt lat="63.12211" lon="7.74112">
        <ele>86.444375</ele>
        <time>2020-08-03T12:26:54.573Z</time>
      </trkpt>
      <trkpt lat="63.12209" lon="7.74132">
        <ele>86.642468</ele>
        <time>2020-08-03T12:26:57.578Z</time>
      </trkpt>
      <trkpt lat="63.12206" lon="7.74151">
        <ele>86.836719</ele>
        <time>2020-08-03T12:27:01.571Z</time>
      </trkpt>
      <trkpt lat="63.12201" lon="7.7417">
        <ele>87.04832</ele>
        <time>2020-08-03T12:27:08.602Z</time>
      </trkpt>
      <trkpt lat="63.12198" lon="7.74188">
        <ele>87.239742</ele>
        <time>2020-08-03T12:27:15.631Z</time>
      </trkpt>
      <trkpt lat="63.12193" lon="7.74207">
        <ele>87.443804</ele>
        <time>2020-08-03T12:27:22.572Z</time>
      </trkpt>
      <trkpt lat="63.12183" lon="7.74201">
        <ele>87.664397</ele>
        <time>2020-08-03T12:27:33.608Z</time>
      </trkpt>
      <trkpt lat="63.12174" lon="7.74201">
        <ele>87.858145</ele>
        <time>2020-08-03T12:27:40.583Z</time>
      </trkpt>
      <trkpt lat="63.12169" lon="7.74222">
        <ele>88.08659</ele>
        <time>2020-08-03T12:27:44.580Z</time>
      </trkpt>
      <trkpt lat="63.12163" lon="7.74242">
        <ele>88.317417</ele>
        <time>2020-08-03T12:27:48.589Z</time>
      </trkpt>
      <trkpt lat="63.12157" lon="7.74265">
        <ele>88.573509</ele>
        <time>2020-08-03T12:27:52.589Z</time>
      </trkpt>
      <trkpt lat="63.12151" lon="7.7429">
        <ele>88.843756</ele>
        <time>2020-08-03T12:27:55.580Z</time>
      </trkpt>
      <trkpt lat="63.12145" lon="7.74314">
        <ele>89.115048</ele>
        <time>2020-08-03T12:27:58.591Z</time>
      </trkpt>
      <trkpt lat="63.1214" lon="7.74336">
        <ele>89.351969</ele>
        <time>2020-08-03T12:28:01.572Z</time>
      </trkpt>
      <trkpt lat="63.12135" lon="7.74354">
        <ele>89.542836</ele>
        <time>2020-08-03T12:28:04.611Z</time>
      </trkpt>
      <trkpt lat="63.12132" lon="7.74374">
        <ele>89.752414</ele>
        <time>2020-08-03T12:28:08.573Z</time>
      </trkpt>
      <trkpt lat="63.12128" lon="7.74396">
        <ele>89.970881</ele>
        <time>2020-08-03T12:28:13.581Z</time>
      </trkpt>
      <trkpt lat="63.12124" lon="7.74417">
        <ele>90.174471</ele>
        <time>2020-08-03T12:28:18.579Z</time>
      </trkpt>
      <trkpt lat="63.12119" lon="7.74435">
        <ele>90.370955</ele>
        <time>2020-08-03T12:28:23.579Z</time>
      </trkpt>
      <trkpt lat="63.12114" lon="7.74453">
        <ele>90.560238</ele>
        <time>2020-08-03T12:28:28.590Z</time>
      </trkpt>
      <trkpt lat="63.12109" lon="7.74473">
        <ele>90.761686</ele>
        <time>2020-08-03T12:28:33.591Z</time>
      </trkpt>
      <trkpt lat="63.12105" lon="7.74493">
        <ele>90.966034</ele>
        <time>2020-08-03T12:28:39.559Z</time>
      </trkpt>
      <trkpt lat="63.12101" lon="7.74514">
        <ele>91.170395</ele>
        <time>2020-08-03T12:28:45.579Z</time>
      </trkpt>
      <trkpt lat="63.12095" lon="7.74532">
        <ele>91.372597</ele>
        <time>2020-08-03T12:28:51.582Z</time>
      </trkpt>
      <trkpt lat="63.12091" lon="7.7455">
        <ele>91.553898</ele>
        <time>2020-08-03T12:28:56.580Z</time>
      </trkpt>
      <trkpt lat="63.12086" lon="7.7457">
        <ele>91.76886</ele>
        <time>2020-08-03T12:29:01.583Z</time>
      </trkpt>
      <trkpt lat="63.1208" lon="7.7459">
        <ele>91.98653</ele>
        <time>2020-08-03T12:29:05.570Z</time>
      </trkpt>
      <trkpt lat="63.12072" lon="7.74607">
        <ele>92.207084</ele>
        <time>2020-08-03T12:29:08.600Z</time>
      </trkpt>
      <trkpt lat="63.12061" lon="7.74625">
        <ele>92.477595</ele>
        <time>2020-08-03T12:29:11.612Z</time>
      </trkpt>
      <trkpt lat="63.12052" lon="7.74639">
        <ele>92.700586</ele>
        <time>2020-08-03T12:29:13.578Z</time>
      </trkpt>
      <trkpt lat="63.12042" lon="7.74655">
        <ele>92.963595</ele>
        <time>2020-08-03T12:29:15.599Z</time>
      </trkpt>
      <trkpt lat="63.12029" lon="7.74672">
        <ele>93.25352</ele>
        <time>2020-08-03T12:29:17.585Z</time>
      </trkpt>
      <trkpt lat="63.12015" lon="7.74687">
        <ele>92.178914</ele>
        <time>2020-08-03T12:29:19.581Z</time>
      </trkpt>
      <trkpt lat="63.12001" lon="7.74703">
        <ele>90.443952</ele>
        <time>2020-08-03T12:29:21.622Z</time>
      </trkpt>
      <trkpt lat="63.11986" lon="7.74716">
        <ele>88.629987</ele>
        <time>2020-08-03T12:29:23.571Z</time>
      </trkpt>
      <trkpt lat="63.11971" lon="7.74729">
        <ele>86.805686</ele>
        <time>2020-08-03T12:29:25.603Z</time>
      </trkpt>
      <trkpt lat="63.11955" lon="7.74741">
        <ele>84.989826</ele>
        <time>2020-08-03T12:29:27.589Z</time>
      </trkpt>
      <trkpt lat="63.11939" lon="7.74751">
        <ele>83.074797</ele>
        <time>2020-08-03T12:29:29.620Z</time>
      </trkpt>
      <trkpt lat="63.11923" lon="7.74763">
        <ele>81.263802</ele>
        <time>2020-08-03T12:29:31.581Z</time>
      </trkpt>
      <trkpt lat="63.11909" lon="7.74775">
        <ele>79.614203</ele>
        <time>2020-08-03T12:29:33.587Z</time>
      </trkpt>
      <trkpt lat="63.11896" lon="7.74787">
        <ele>78.028219</ele>
        <time>2020-08-03T12:29:35.604Z</time>
      </trkpt>
      <trkpt lat="63.11883" lon="7.748">
        <ele>76.503709</ele>
        <time>2020-08-03T12:29:37.582Z</time>
      </trkpt>
      <trkpt lat="63.11872" lon="7.74812">
        <ele>75.064216</ele>
        <time>2020-08-03T12:29:39.588Z</time>
      </trkpt>
      <trkpt lat="63.1186" lon="7.74822">
        <ele>73.632254</ele>
        <time>2020-08-03T12:29:41.575Z</time>
      </trkpt>
      <trkpt lat="63.11848" lon="7.74834">
        <ele>72.956469</ele>
        <time>2020-08-03T12:29:43.582Z</time>
      </trkpt>
      <trkpt lat="63.11837" lon="7.74841">
        <ele>72.488273</ele>
        <time>2020-08-03T12:29:45.575Z</time>
      </trkpt>
      <trkpt lat="63.11828" lon="7.7485">
        <ele>72.04637</ele>
        <time>2020-08-03T12:29:47.577Z</time>
      </trkpt>
      <trkpt lat="63.11819" lon="7.74858">
        <ele>71.608127</ele>
        <time>2020-08-03T12:29:49.617Z</time>
      </trkpt>
      <trkpt lat="63.1181" lon="7.74862">
        <ele>71.206542</ele>
        <time>2020-08-03T12:29:51.563Z</time>
      </trkpt>
      <trkpt lat="63.11798" lon="7.74867">
        <ele>70.696638</ele>
        <time>2020-08-03T12:29:53.609Z</time>
      </trkpt>
      <trkpt lat="63.11782" lon="7.74876">
        <ele>69.99208</ele>
        <time>2020-08-03T12:29:55.593Z</time>
      </trkpt>
      <trkpt lat="63.11766" lon="7.74888">
        <ele>69.258777</ele>
        <time>2020-08-03T12:29:57.580Z</time>
      </trkpt>
      <trkpt lat="63.11752" lon="7.74904">
        <ele>68.55992</ele>
        <time>2020-08-03T12:29:59.617Z</time>
      </trkpt>
      <trkpt lat="63.1174" lon="7.74924">
        <ele>67.902495</ele>
        <time>2020-08-03T12:30:01.571Z</time>
      </trkpt>
      <trkpt lat="63.11731" lon="7.74938">
        <ele>67.43744</ele>
        <time>2020-08-03T12:30:03.595Z</time>
      </trkpt>
      <trkpt lat="63.11723" lon="7.74953">
        <ele>66.968436</ele>
        <time>2020-08-03T12:30:06.570Z</time>
      </trkpt>
      <trkpt lat="63.11717" lon="7.7497">
        <ele>66.549027</ele>
        <time>2020-08-03T12:30:10.581Z</time>
      </trkpt>
      <trkpt lat="63.11712" lon="7.74987">
        <ele>66.147501</ele>
        <time>2020-08-03T12:30:14.576Z</time>
      </trkpt>
      <trkpt lat="63.11703" lon="7.75001">
        <ele>65.665947</ele>
        <time>2020-08-03T12:30:18.569Z</time>
      </trkpt>
      <trkpt lat="63.11693" lon="7.75011">
        <ele>66.419508</ele>
        <time>2020-08-03T12:30:22.606Z</time>
      </trkpt>
      <trkpt lat="63.11684" lon="7.7502">
        <ele>67.177226</ele>
        <time>2020-08-03T12:30:26.586Z</time>
      </trkpt>
      <trkpt lat="63.11674" lon="7.7503">
        <ele>68.02093</ele>
        <time>2020-08-03T12:30:31.578Z</time>
      </trkpt>
      <trkpt lat="63.11666" lon="7.75041">
        <ele>68.747972</ele>
        <time>2020-08-03T12:30:36.579Z</time>
      </trkpt>
      <trkpt lat="63.11658" lon="7.75051">
        <ele>69.440614</ele>
        <time>2020-08-03T12:30:41.581Z</time>
      </trkpt>
      <trkpt lat="63.11649" lon="7.75065">
        <ele>70.283508</ele>
        <time>2020-08-03T12:30:47.575Z</time>
      </trkpt>
      <trkpt lat="63.11641" lon="7.75074">
        <ele>70.977586</ele>
        <time>2020-08-03T12:30:51.582Z</time>
      </trkpt>
      <trkpt lat="63.11632" lon="7.75082">
        <ele>71.700261</ele>
        <time>2020-08-03T12:30:56.594Z</time>
      </trkpt>
      <trkpt lat="63.11624" lon="7.75091">
        <ele>72.428752</ele>
        <time>2020-08-03T12:31:02.620Z</time>
      </trkpt>
      <trkpt lat="63.11614" lon="7.75102">
        <ele>73.24663</ele>
        <time>2020-08-03T12:31:08.590Z</time>
      </trkpt>
      <trkpt lat="63.11607" lon="7.75114">
        <ele>73.943146</ele>
        <time>2020-08-03T12:31:14.586Z</time>
      </trkpt>
      <trkpt lat="63.11598" lon="7.75125">
        <ele>74.735574</ele>
        <time>2020-08-03T12:31:20.595Z</time>
      </trkpt>
      <trkpt lat="63.11589" lon="7.75137">
        <ele>75.521353</ele>
        <time>2020-08-03T12:31:26.577Z</time>
      </trkpt>
      <trkpt lat="63.1158" lon="7.75147">
        <ele>76.26359</ele>
        <time>2020-08-03T12:31:31.570Z</time>
      </trkpt>
      <trkpt lat="63.11572" lon="7.75156">
        <ele>77.001654</ele>
        <time>2020-08-03T12:31:36.623Z</time>
      </trkpt>
      <trkpt lat="63.11563" lon="7.75166">
        <ele>77.732445</ele>
        <time>2020-08-03T12:31:40.591Z</time>
      </trkpt>
      <trkpt lat="63.11553" lon="7.75174">
        <ele>78.54362</ele>
        <time>2020-08-03T12:31:45.579Z</time>
      </trkpt>
      <trkpt lat="63.11545" lon="7.75183">
        <ele>79.245432</ele>
        <time>2020-08-03T12:31:50.584Z</time>
      </trkpt>
      <trkpt lat="63.11537" lon="7.75192">
        <ele>79.41577</ele>
        <time>2020-08-03T12:31:55.574Z</time>
      </trkpt>
      <trkpt lat="63.11528" lon="7.75202">
        <ele>79.43224</ele>
        <time>2020-08-03T12:32:00.571Z</time>
      </trkpt>
      <trkpt lat="63.11518" lon="7.75212">
        <ele>79.450298</ele>
        <time>2020-08-03T12:32:05.582Z</time>
      </trkpt>
      <trkpt lat="63.1151" lon="7.75221">
        <ele>79.465328</ele>
        <time>2020-08-03T12:32:09.605Z</time>
      </trkpt>
      <trkpt lat="63.115" lon="7.75233">
        <ele>79.483928</ele>
        <time>2020-08-03T12:32:14.575Z</time>
      </trkpt>
      <trkpt lat="63.11491" lon="7.75242">
        <ele>79.500322</ele>
        <time>2020-08-03T12:32:18.576Z</time>
      </trkpt>
      <trkpt lat="63.11483" lon="7.75251">
        <ele>79.515251</ele>
        <time>2020-08-03T12:32:22.567Z</time>
      </trkpt>
      <trkpt lat="63.11475" lon="7.75259">
        <ele>79.530263</ele>
        <time>2020-08-03T12:32:26.581Z</time>
      </trkpt>
      <trkpt lat="63.11467" lon="7.75269">
        <ele>79.54526</ele>
        <time>2020-08-03T12:32:30.562Z</time>
      </trkpt>
      <trkpt lat="63.11457" lon="7.75279">
        <ele>79.562329</ele>
        <time>2020-08-03T12:32:34.588Z</time>
      </trkpt>
      <trkpt lat="63.11448" lon="7.75289">
        <ele>79.579974</ele>
        <time>2020-08-03T12:32:38.599Z</time>
      </trkpt>
      <trkpt lat="63.11438" lon="7.75301">
        <ele>79.598079</ele>
        <time>2020-08-03T12:32:42.611Z</time>
      </trkpt>
      <trkpt lat="63.11429" lon="7.75312">
        <ele>79.615091</ele>
        <time>2020-08-03T12:32:46.577Z</time>
      </trkpt>
      <trkpt lat="63.11419" lon="7.75324">
        <ele>79.634123</ele>
        <time>2020-08-03T12:32:50.586Z</time>
      </trkpt>
      <trkpt lat="63.11409" lon="7.75336">
        <ele>79.652289</ele>
        <time>2020-08-03T12:32:54.597Z</time>
      </trkpt>
      <trkpt lat="63.11399" lon="7.75347">
        <ele>79.671403</ele>
        <time>2020-08-03T12:32:58.579Z</time>
      </trkpt>
      <trkpt lat="63.11389" lon="7.75357">
        <ele>79.689069</ele>
        <time>2020-08-03T12:33:02.568Z</time>
      </trkpt>
      <trkpt lat="63.11378" lon="7.7537">
        <ele>79.766035</ele>
        <time>2020-08-03T12:33:06.595Z</time>
      </trkpt>
      <trkpt lat="63.11367" lon="7.75382">
        <ele>79.925927</ele>
        <time>2020-08-03T12:33:09.594Z</time>
      </trkpt>
      <trkpt lat="63.11359" lon="7.75392">
        <ele>80.051769</ele>
        <time>2020-08-03T12:33:11.563Z</time>
      </trkpt>
      <trkpt lat="63.1135" lon="7.75402">
        <ele>80.180771</ele>
        <time>2020-08-03T12:33:13.575Z</time>
      </trkpt>
      <trkpt lat="63.11342" lon="7.75413">
        <ele>80.308916</ele>
        <time>2020-08-03T12:33:15.639Z</time>
      </trkpt>
      <trkpt lat="63.11333" lon="7.75422">
        <ele>80.437677</ele>
        <time>2020-08-03T12:33:17.587Z</time>
      </trkpt>
      <trkpt lat="63.11324" lon="7.75432">
        <ele>80.57219</ele>
        <time>2020-08-03T12:33:19.598Z</time>
      </trkpt>
      <trkpt lat="63.11315" lon="7.75443">
        <ele>80.705219</ele>
        <time>2020-08-03T12:33:21.579Z</time>
      </trkpt>
      <trkpt lat="63.11307" lon="7.75452">
        <ele>80.825432</ele>
        <time>2020-08-03T12:33:23.584Z</time>
      </trkpt>
      <trkpt lat="63.11296" lon="7.75462">
        <ele>80.982382</ele>
        <time>2020-08-03T12:33:26.613Z</time>
      </trkpt>
      <trkpt lat="63.11286" lon="7.75462">
        <ele>81.111073</ele>
        <time>2020-08-03T12:33:29.581Z</time>
      </trkpt>
      <trkpt lat="63.11277" lon="7.75453">
        <ele>81.240296</ele>
        <time>2020-08-03T12:33:33.580Z</time>
      </trkpt>
      <trkpt lat="63.11276" lon="7.75475">
        <ele>81.373553</ele>
        <time>2020-08-03T12:33:38.581Z</time>
      </trkpt>
      <trkpt lat="63.11274" lon="7.75495">
        <ele>81.49375</ele>
        <time>2020-08-03T12:33:41.580Z</time>
      </trkpt>
      <trkpt lat="63.11268" lon="7.75514">
        <ele>81.627699</ele>
        <time>2020-08-03T12:33:45.588Z</time>
      </trkpt>
      <trkpt lat="63.1126" lon="7.75525">
        <ele>81.756637</ele>
        <time>2020-08-03T12:33:50.602Z</time>
      </trkpt>
      <trkpt lat="63.11252" lon="7.75536">
        <ele>81.881912</ele>
        <time>2020-08-03T12:33:56.573Z</time>
      </trkpt>
      <trkpt lat="63.11244" lon="7.75548">
        <ele>82.012363</ele>
        <time>2020-08-03T12:34:03.577Z</time>
      </trkpt>
      <trkpt lat="63.11235" lon="7.75558">
        <ele>82.319351</ele>
        <time>2020-08-03T12:34:10.588Z</time>
      </trkpt>
      <trkpt lat="63.11226" lon="7.75568">
        <ele>82.764662</ele>
        <time>2020-08-03T12:34:16.582Z</time>
      </trkpt>
      <trkpt lat="63.11218" lon="7.75581">
        <ele>83.218409</ele>
        <time>2020-08-03T12:34:24.588Z</time>
      </trkpt>
      <trkpt lat="63.1121" lon="7.75593">
        <ele>83.646061</ele>
        <time>2020-08-03T12:34:30.590Z</time>
      </trkpt>
      <trkpt lat="63.11209" lon="7.75615">
        <ele>84.082153</ele>
        <time>2020-08-03T12:34:39.582Z</time>
      </trkpt>
      <trkpt lat="63.11214" lon="7.75635">
        <ele>84.558334</ele>
        <time>2020-08-03T12:34:45.570Z</time>
      </trkpt>
      <trkpt lat="63.11219" lon="7.75654">
        <ele>84.994345</ele>
        <time>2020-08-03T12:34:50.604Z</time>
      </trkpt>
      <trkpt lat="63.11224" lon="7.75676">
        <ele>85.461739</ele>
        <time>2020-08-03T12:34:54.597Z</time>
      </trkpt>
      <trkpt lat="63.11228" lon="7.75694">
        <ele>85.874788</ele>
        <time>2020-08-03T12:34:57.570Z</time>
      </trkpt>
      <trkpt lat="63.11233" lon="7.75719">
        <ele>86.409498</ele>
        <time>2020-08-03T12:35:00.606Z</time>
      </trkpt>
      <trkpt lat="63.11236" lon="7.75745">
        <ele>86.952654</ele>
        <time>2020-08-03T12:35:03.584Z</time>
      </trkpt>
      <trkpt lat="63.11232" lon="7.7577">
        <ele>87.478079</ele>
        <time>2020-08-03T12:35:06.567Z</time>
      </trkpt>
      <trkpt lat="63.11223" lon="7.7578">
        <ele>87.94317</ele>
        <time>2020-08-03T12:35:09.579Z</time>
      </trkpt>
      <trkpt lat="63.11213" lon="7.7578">
        <ele>88.349268</ele>
        <time>2020-08-03T12:35:13.580Z</time>
      </trkpt>
      <trkpt lat="63.11203" lon="7.75777">
        <ele>88.80624</ele>
        <time>2020-08-03T12:35:18.595Z</time>
      </trkpt>
      <trkpt lat="63.11193" lon="7.75775">
        <ele>89.255116</ele>
        <time>2020-08-03T12:35:23.580Z</time>
      </trkpt>
      <trkpt lat="63.11184" lon="7.75775">
        <ele>89.661351</ele>
        <time>2020-08-03T12:35:27.575Z</time>
      </trkpt>
      <trkpt lat="63.11174" lon="7.75773">
        <ele>90.089567</ele>
        <time>2020-08-03T12:35:31.581Z</time>
      </trkpt>
      <trkpt lat="63.11164" lon="7.7577">
        <ele>90.552656</ele>
        <time>2020-08-03T12:35:35.609Z</time>
      </trkpt>
      <trkpt lat="63.11154" lon="7.7577">
        <ele>91.002282</ele>
        <time>2020-08-03T12:35:39.570Z</time>
      </trkpt>
      <trkpt lat="63.11145" lon="7.75769">
        <ele>91.443195</ele>
        <time>2020-08-03T12:35:43.572Z</time>
      </trkpt>
      <trkpt lat="63.11135" lon="7.75769">
        <ele>91.874759</ele>
        <time>2020-08-03T12:35:47.575Z</time>
      </trkpt>
      <trkpt lat="63.11125" lon="7.75767">
        <ele>92.334937</ele>
        <time>2020-08-03T12:35:51.569Z</time>
      </trkpt>
      <trkpt lat="63.11115" lon="7.75768">
        <ele>92.771738</ele>
        <time>2020-08-03T12:35:56.565Z</time>
      </trkpt>
      <trkpt lat="63.11106" lon="7.75768">
        <ele>93.212305</ele>
        <time>2020-08-03T12:36:02.594Z</time>
      </trkpt>
      <trkpt lat="63.11096" lon="7.75768">
        <ele>93.671111</ele>
        <time>2020-08-03T12:36:08.584Z</time>
      </trkpt>
      <trkpt lat="63.11086" lon="7.75768">
        <ele>94.120719</ele>
        <time>2020-08-03T12:36:15.571Z</time>
      </trkpt>
      <trkpt lat="63.11076" lon="7.75773">
        <ele>94.568168</ele>
        <time>2020-08-03T12:36:22.609Z</time>
      </trkpt>
      <trkpt lat="63.11067" lon="7.75774">
        <ele>94.981771</ele>
        <time>2020-08-03T12:36:29.607Z</time>
      </trkpt>
      <trkpt lat="63.11058" lon="7.75772">
        <ele>95.398225</ele>
        <time>2020-08-03T12:36:36.580Z</time>
      </trkpt>
      <trkpt lat="63.11049" lon="7.75771">
        <ele>95.821083</ele>
        <time>2020-08-03T12:36:44.577Z</time>
      </trkpt>
      <trkpt lat="63.11039" lon="7.7577">
        <ele>96.248225</ele>
        <time>2020-08-03T12:36:51.591Z</time>
      </trkpt>
      <trkpt lat="63.1103" lon="7.75778">
        <ele>96.700682</ele>
        <time>2020-08-03T12:36:58.585Z</time>
      </trkpt>
      <trkpt lat="63.1102" lon="7.75781">
        <ele>97.140998</ele>
        <time>2020-08-03T12:37:05.586Z</time>
      </trkpt>
      <trkpt lat="63.11011" lon="7.75781">
        <ele>97.572563</ele>
        <time>2020-08-03T12:37:12.600Z</time>
      </trkpt>
      <trkpt lat="63.11001" lon="7.75777">
        <ele>98.002451</ele>
        <time>2020-08-03T12:37:18.567Z</time>
      </trkpt>
      <trkpt lat="63.10992" lon="7.75774">
        <ele>97.931328</ele>
        <time>2020-08-03T12:37:23.582Z</time>
      </trkpt>
      <trkpt lat="63.10983" lon="7.75773">
        <ele>97.555798</ele>
        <time>2020-08-03T12:37:28.598Z</time>
      </trkpt>
      <trkpt lat="63.10974" lon="7.75772">
        <ele>97.180468</ele>
        <time>2020-08-03T12:37:33.596Z</time>
      </trkpt>
      <trkpt lat="63.10965" lon="7.75768">
        <ele>96.802044</ele>
        <time>2020-08-03T12:37:37.579Z</time>
      </trkpt>
      <trkpt lat="63.10955" lon="7.75759">
        <ele>96.37858</ele>
        <time>2020-08-03T12:37:41.615Z</time>
      </trkpt>
      <trkpt lat="63.10945" lon="7.75773">
        <ele>95.878953</ele>
        <time>2020-08-03T12:37:45.584Z</time>
      </trkpt>
      <trkpt lat="63.10944" lon="7.75794">
        <ele>95.486888</ele>
        <time>2020-08-03T12:37:48.580Z</time>
      </trkpt>
      <trkpt lat="63.10945" lon="7.75815">
        <ele>95.097343</ele>
        <time>2020-08-03T12:37:51.569Z</time>
      </trkpt>
      <trkpt lat="63.10948" lon="7.75839">
        <ele>94.633412</ele>
        <time>2020-08-03T12:37:55.590Z</time>
      </trkpt>
      <trkpt lat="63.10951" lon="7.7586">
        <ele>94.232151</ele>
        <time>2020-08-03T12:37:58.586Z</time>
      </trkpt>
      <trkpt lat="63.10953" lon="7.75881">
        <ele>93.832153</ele>
        <time>2020-08-03T12:38:01.568Z</time>
      </trkpt>
      <trkpt lat="63.10957" lon="7.75907">
        <ele>93.326308</ele>
        <time>2020-08-03T12:38:04.573Z</time>
      </trkpt>
      <trkpt lat="63.10958" lon="7.75929">
        <ele>92.928896</ele>
        <time>2020-08-03T12:38:06.590Z</time>
      </trkpt>
      <trkpt lat="63.10959" lon="7.75953">
        <ele>92.478821</ele>
        <time>2020-08-03T12:38:08.583Z</time>
      </trkpt>
      <trkpt lat="63.1096" lon="7.75979">
        <ele>92.001217</ele>
        <time>2020-08-03T12:38:10.617Z</time>
      </trkpt>
      <trkpt lat="63.10962" lon="7.7601">
        <ele>91.417959</ele>
        <time>2020-08-03T12:38:13.563Z</time>
      </trkpt>
      <trkpt lat="63.10964" lon="7.76037">
        <ele>90.926459</ele>
        <time>2020-08-03T12:38:15.581Z</time>
      </trkpt>
      <trkpt lat="63.10966" lon="7.76059">
        <ele>90.274351</ele>
        <time>2020-08-03T12:38:17.580Z</time>
      </trkpt>
      <trkpt lat="63.10969" lon="7.76085">
        <ele>89.458063</ele>
        <time>2020-08-03T12:38:19.584Z</time>
      </trkpt>
      <trkpt lat="63.10971" lon="7.76119">
        <ele>88.419339</ele>
        <time>2020-08-03T12:38:21.597Z</time>
      </trkpt>
      <trkpt lat="63.10975" lon="7.76158">
        <ele>87.211772</ele>
        <time>2020-08-03T12:38:23.581Z</time>
      </trkpt>
      <trkpt lat="63.10977" lon="7.76178">
        <ele>86.57425</ele>
        <time>2020-08-03T12:38:24.580Z</time>
      </trkpt>
      <trkpt lat="63.10978" lon="7.76199">
        <ele>85.930458</ele>
        <time>2020-08-03T12:38:25.587Z</time>
      </trkpt>
      <trkpt lat="63.1098" lon="7.7622">
        <ele>85.267995</ele>
        <time>2020-08-03T12:38:26.568Z</time>
      </trkpt>
      <trkpt lat="63.10981" lon="7.76241">
        <ele>84.62758</ele>
        <time>2020-08-03T12:38:27.570Z</time>
      </trkpt>
      <trkpt lat="63.10982" lon="7.76261">
        <ele>84.018309</ele>
        <time>2020-08-03T12:38:28.579Z</time>
      </trkpt>
      <trkpt lat="63.10983" lon="7.76297">
        <ele>82.914742</ele>
        <time>2020-08-03T12:38:30.574Z</time>
      </trkpt>
      <trkpt lat="63.10981" lon="7.7633">
        <ele>81.895702</ele>
        <time>2020-08-03T12:38:32.575Z</time>
      </trkpt>
      <trkpt lat="63.10978" lon="7.76364">
        <ele>80.849985</ele>
        <time>2020-08-03T12:38:34.567Z</time>
      </trkpt>
      <trkpt lat="63.10974" lon="7.76399">
        <ele>79.738539</ele>
        <time>2020-08-03T12:38:36.566Z</time>
      </trkpt>
      <trkpt lat="63.10971" lon="7.76433">
        <ele>78.668846</ele>
        <time>2020-08-03T12:38:38.571Z</time>
      </trkpt>
      <trkpt lat="63.10967" lon="7.76466">
        <ele>76.979664</ele>
        <time>2020-08-03T12:38:40.569Z</time>
      </trkpt>
      <trkpt lat="63.10964" lon="7.76498">
        <ele>75.331662</ele>
        <time>2020-08-03T12:38:42.576Z</time>
      </trkpt>
      <trkpt lat="63.1096" lon="7.76527">
        <ele>73.837517</ele>
        <time>2020-08-03T12:38:44.579Z</time>
      </trkpt>
      <trkpt lat="63.10958" lon="7.76554">
        <ele>72.494732</ele>
        <time>2020-08-03T12:38:46.579Z</time>
      </trkpt>
      <trkpt lat="63.10957" lon="7.76579">
        <ele>71.213115</ele>
        <time>2020-08-03T12:38:48.595Z</time>
      </trkpt>
      <trkpt lat="63.10957" lon="7.76605">
        <ele>69.931198</ele>
        <time>2020-08-03T12:38:50.618Z</time>
      </trkpt>
      <trkpt lat="63.10957" lon="7.76632">
        <ele>68.613817</ele>
        <time>2020-08-03T12:38:52.585Z</time>
      </trkpt>
      <trkpt lat="63.10958" lon="7.76658">
        <ele>67.320843</ele>
        <time>2020-08-03T12:38:54.576Z</time>
      </trkpt>
      <trkpt lat="63.10959" lon="7.76681">
        <ele>66.165578</ele>
        <time>2020-08-03T12:38:56.566Z</time>
      </trkpt>
      <trkpt lat="63.1096" lon="7.76704">
        <ele>65.013938</ele>
        <time>2020-08-03T12:38:58.569Z</time>
      </trkpt>
      <trkpt lat="63.10962" lon="7.76728">
        <ele>63.778897</ele>
        <time>2020-08-03T12:39:00.569Z</time>
      </trkpt>
      <trkpt lat="63.10965" lon="7.76754">
        <ele>62.465331</ele>
        <time>2020-08-03T12:39:02.575Z</time>
      </trkpt>
      <trkpt lat="63.10968" lon="7.76782">
        <ele>61.035065</ele>
        <time>2020-08-03T12:39:04.606Z</time>
      </trkpt>
      <trkpt lat="63.1097" lon="7.76808">
        <ele>59.72651</ele>
        <time>2020-08-03T12:39:06.611Z</time>
      </trkpt>
      <trkpt lat="63.10969" lon="7.76829">
        <ele>58.829669</ele>
        <time>2020-08-03T12:39:08.569Z</time>
      </trkpt>
      <trkpt lat="63.1096" lon="7.76845">
        <ele>58.343351</ele>
        <time>2020-08-03T12:39:11.574Z</time>
      </trkpt>
      <trkpt lat="63.10948" lon="7.76854">
        <ele>57.780151</ele>
        <time>2020-08-03T12:39:14.570Z</time>
      </trkpt>
      <trkpt lat="63.10935" lon="7.76858">
        <ele>57.197369</ele>
        <time>2020-08-03T12:39:17.586Z</time>
      </trkpt>
      <trkpt lat="63.10925" lon="7.76861">
        <ele>56.767117</ele>
        <time>2020-08-03T12:39:19.579Z</time>
      </trkpt>
      <trkpt lat="63.10917" lon="7.76865">
        <ele>56.37157</ele>
        <time>2020-08-03T12:39:21.626Z</time>
      </trkpt>
      <trkpt lat="63.10904" lon="7.76869">
        <ele>55.802998</ele>
        <time>2020-08-03T12:39:24.599Z</time>
      </trkpt>
      <trkpt lat="63.10891" lon="7.76876">
        <ele>55.23159</ele>
        <time>2020-08-03T12:39:27.575Z</time>
      </trkpt>
      <trkpt lat="63.10878" lon="7.76885">
        <ele>54.639611</ele>
        <time>2020-08-03T12:39:30.571Z</time>
      </trkpt>
      <trkpt lat="63.10868" lon="7.76889">
        <ele>54.185618</ele>
        <time>2020-08-03T12:39:32.578Z</time>
      </trkpt>
      <trkpt lat="63.10858" lon="7.76885">
        <ele>53.723226</ele>
        <time>2020-08-03T12:39:34.588Z</time>
      </trkpt>
      <trkpt lat="63.10846" lon="7.76888">
        <ele>53.209314</ele>
        <time>2020-08-03T12:39:36.564Z</time>
      </trkpt>
      <trkpt lat="63.10839" lon="7.76905">
        <ele>52.757697</ele>
        <time>2020-08-03T12:39:38.580Z</time>
      </trkpt>
      <trkpt lat="63.1084" lon="7.76929">
        <ele>52.283746</ele>
        <time>2020-08-03T12:39:40.599Z</time>
      </trkpt>
      <trkpt lat="63.10844" lon="7.76949">
        <ele>51.847121</ele>
        <time>2020-08-03T12:39:42.593Z</time>
      </trkpt>
      <trkpt lat="63.10846" lon="7.76969">
        <ele>51.430501</ele>
        <time>2020-08-03T12:39:44.566Z</time>
      </trkpt>
      <trkpt lat="63.10848" lon="7.76995">
        <ele>51.306185</ele>
        <time>2020-08-03T12:39:47.571Z</time>
      </trkpt>
      <trkpt lat="63.10851" lon="7.77017">
        <ele>52.345893</ele>
        <time>2020-08-03T12:39:50.584Z</time>
      </trkpt>
      <trkpt lat="63.10853" lon="7.77039">
        <ele>53.41295</ele>
        <time>2020-08-03T12:39:54.569Z</time>
      </trkpt>
      <trkpt lat="63.10855" lon="7.77062">
        <ele>54.501693</ele>
        <time>2020-08-03T12:39:59.573Z</time>
      </trkpt>
      <trkpt lat="63.10856" lon="7.77086">
        <ele>55.644817</ele>
        <time>2020-08-03T12:40:04.563Z</time>
      </trkpt>
      <trkpt lat="63.10856" lon="7.77107">
        <ele>56.623483</ele>
        <time>2020-08-03T12:40:08.593Z</time>
      </trkpt>
      <trkpt lat="63.10858" lon="7.77127">
        <ele>57.586529</ele>
        <time>2020-08-03T12:40:12.575Z</time>
      </trkpt>
      <trkpt lat="63.10862" lon="7.77147">
        <ele>58.64093</ele>
        <time>2020-08-03T12:40:16.574Z</time>
      </trkpt>
      <trkpt lat="63.10865" lon="7.77168">
        <ele>59.665717</ele>
        <time>2020-08-03T12:40:21.565Z</time>
      </trkpt>
      <trkpt lat="63.10868" lon="7.77188">
        <ele>60.678116</ele>
        <time>2020-08-03T12:40:26.560Z</time>
      </trkpt>
      <trkpt lat="63.10868" lon="7.77208">
        <ele>61.614741</ele>
        <time>2020-08-03T12:40:31.583Z</time>
      </trkpt>
      <trkpt lat="63.10869" lon="7.77232">
        <ele>62.753062</ele>
        <time>2020-08-03T12:40:37.575Z</time>
      </trkpt>
      <trkpt lat="63.10872" lon="7.77253">
        <ele>63.751827</ele>
        <time>2020-08-03T12:40:42.562Z</time>
      </trkpt>
      <trkpt lat="63.10876" lon="7.77271">
        <ele>64.721384</ele>
        <time>2020-08-03T12:40:47.579Z</time>
      </trkpt>
      <trkpt lat="63.10881" lon="7.77288">
        <ele>65.667345</ele>
        <time>2020-08-03T12:40:52.569Z</time>
      </trkpt>
      <trkpt lat="63.10886" lon="7.77305">
        <ele>66.617205</ele>
        <time>2020-08-03T12:40:58.590Z</time>
      </trkpt>
      <trkpt lat="63.10889" lon="7.77323">
        <ele>67.573221</ele>
        <time>2020-08-03T12:41:03.591Z</time>
      </trkpt>
      <trkpt lat="63.10893" lon="7.77345">
        <ele>68.66353</ele>
        <time>2020-08-03T12:41:09.559Z</time>
      </trkpt>
      <trkpt lat="63.10895" lon="7.77368">
        <ele>69.7329</ele>
        <time>2020-08-03T12:41:15.618Z</time>
      </trkpt>
      <trkpt lat="63.109" lon="7.77385">
        <ele>69.95447</ele>
        <time>2020-08-03T12:41:20.566Z</time>
      </trkpt>
      <trkpt lat="63.10906" lon="7.77404">
        <ele>70.19882</ele>
        <time>2020-08-03T12:41:25.569Z</time>
      </trkpt>
      <trkpt lat="63.1091" lon="7.77423">
        <ele>70.42893</ele>
        <time>2020-08-03T12:41:29.567Z</time>
      </trkpt>
      <trkpt lat="63.10915" lon="7.7744">
        <ele>70.6477</ele>
        <time>2020-08-03T12:41:33.579Z</time>
      </trkpt>
      <trkpt lat="63.1092" lon="7.77461">
        <ele>70.906014</ele>
        <time>2020-08-03T12:41:38.588Z</time>
      </trkpt>
      <trkpt lat="63.10922" lon="7.77486">
        <ele>71.17732</ele>
        <time>2020-08-03T12:41:43.563Z</time>
      </trkpt>
      <trkpt lat="63.10924" lon="7.77511">
        <ele>71.459734</ele>
        <time>2020-08-03T12:41:47.560Z</time>
      </trkpt>
      <trkpt lat="63.10924" lon="7.77532">
        <ele>71.686326</ele>
        <time>2020-08-03T12:41:50.619Z</time>
      </trkpt>
      <trkpt lat="63.10925" lon="7.77553">
        <ele>71.91324</ele>
        <time>2020-08-03T12:41:53.571Z</time>
      </trkpt>
      <trkpt lat="63.10925" lon="7.77573">
        <ele>72.129462</ele>
        <time>2020-08-03T12:41:56.579Z</time>
      </trkpt>
      <trkpt lat="63.10924" lon="7.77594">
        <ele>72.353531</ele>
        <time>2020-08-03T12:41:59.571Z</time>
      </trkpt>
      <trkpt lat="63.10924" lon="7.77618">
        <ele>72.621739</ele>
        <time>2020-08-03T12:42:03.555Z</time>
      </trkpt>
      <trkpt lat="63.10926" lon="7.77641">
        <ele>72.867447</ele>
        <time>2020-08-03T12:42:07.561Z</time>
      </trkpt>
      <trkpt lat="63.10928" lon="7.77663">
        <ele>73.114137</ele>
        <time>2020-08-03T12:42:11.561Z</time>
      </trkpt>
      <trkpt lat="63.10929" lon="7.77687">
        <ele>73.378299</ele>
        <time>2020-08-03T12:42:16.583Z</time>
      </trkpt>
      <trkpt lat="63.10929" lon="7.77711">
        <ele>73.634649</ele>
        <time>2020-08-03T12:42:21.577Z</time>
      </trkpt>
      <trkpt lat="63.10928" lon="7.77732">
        <ele>73.867137</ele>
        <time>2020-08-03T12:42:26.572Z</time>
      </trkpt>
      <trkpt lat="63.1093" lon="7.77755">
        <ele>73.909668</ele>
        <time>2020-08-03T12:42:32.603Z</time>
      </trkpt>
      <trkpt lat="63.10922" lon="7.77769">
        <ele>73.41782</ele>
        <time>2020-08-03T12:42:38.566Z</time>
      </trkpt>
      <trkpt lat="63.10912" lon="7.7777">
        <ele>72.979739</ele>
        <time>2020-08-03T12:42:43.583Z</time>
      </trkpt>
      <trkpt lat="63.10902" lon="7.77771">
        <ele>72.490371</ele>
        <time>2020-08-03T12:42:49.569Z</time>
      </trkpt>
      <trkpt lat="63.10892" lon="7.77773">
        <ele>72.040007</ele>
        <time>2020-08-03T12:42:54.619Z</time>
      </trkpt>
      <trkpt lat="63.10881" lon="7.77774">
        <ele>71.540946</ele>
        <time>2020-08-03T12:43:01.568Z</time>
      </trkpt>
      <trkpt lat="63.10871" lon="7.77776">
        <ele>71.041423</ele>
        <time>2020-08-03T12:43:05.581Z</time>
      </trkpt>
      <trkpt lat="63.1086" lon="7.77777">
        <ele>70.532726</ele>
        <time>2020-08-03T12:43:08.558Z</time>
      </trkpt>
      <trkpt lat="63.10848" lon="7.7778">
        <ele>69.964704</ele>
        <time>2020-08-03T12:43:11.574Z</time>
      </trkpt>
      <trkpt lat="63.10838" lon="7.77781">
        <ele>69.535648</ele>
        <time>2020-08-03T12:43:14.559Z</time>
      </trkpt>
      <trkpt lat="63.1083" lon="7.77786">
        <ele>69.115755</ele>
        <time>2020-08-03T12:43:18.583Z</time>
      </trkpt>
      <trkpt lat="63.10818" lon="7.77787">
        <ele>68.555518</ele>
        <time>2020-08-03T12:43:22.591Z</time>
      </trkpt>
      <trkpt lat="63.10807" lon="7.77785">
        <ele>68.07319</ele>
        <time>2020-08-03T12:43:25.582Z</time>
      </trkpt>
      <trkpt lat="63.10796" lon="7.77782">
        <ele>67.546759</ele>
        <time>2020-08-03T12:43:29.560Z</time>
      </trkpt>
      <trkpt lat="63.10787" lon="7.77781">
        <ele>67.113382</ele>
        <time>2020-08-03T12:43:32.620Z</time>
      </trkpt>
      <trkpt lat="63.10776" lon="7.77778">
        <ele>66.619835</ele>
        <time>2020-08-03T12:43:35.587Z</time>
      </trkpt>
      <trkpt lat="63.10766" lon="7.77773">
        <ele>66.134695</ele>
        <time>2020-08-03T12:43:38.566Z</time>
      </trkpt>
      <trkpt lat="63.10757" lon="7.77778">
        <ele>65.709195</ele>
        <time>2020-08-03T12:43:44.565Z</time>
      </trkpt>
      <trkpt lat="63.10753" lon="7.77799">
        <ele>65.777763</ele>
        <time>2020-08-03T12:43:50.600Z</time>
      </trkpt>
      <trkpt lat="63.10753" lon="7.77821">
        <ele>65.8946</ele>
        <time>2020-08-03T12:43:56.571Z</time>
      </trkpt>
      <trkpt lat="63.10752" lon="7.7784">
        <ele>66.001397</ele>
        <time>2020-08-03T12:44:02.577Z</time>
      </trkpt>
      <trkpt lat="63.10752" lon="7.77863">
        <ele>66.122234</ele>
        <time>2020-08-03T12:44:09.559Z</time>
      </trkpt>
      <trkpt lat="63.10752" lon="7.77884">
        <ele>66.237427</ele>
        <time>2020-08-03T12:44:15.579Z</time>
      </trkpt>
      <trkpt lat="63.10751" lon="7.77906">
        <ele>66.356368</ele>
        <time>2020-08-03T12:44:22.583Z</time>
      </trkpt>
      <trkpt lat="63.10752" lon="7.77927">
        <ele>66.465675</ele>
        <time>2020-08-03T12:44:28.563Z</time>
      </trkpt>
      <trkpt lat="63.10752" lon="7.77949">
        <ele>66.586436</ele>
        <time>2020-08-03T12:44:34.575Z</time>
      </trkpt>
      <trkpt lat="63.10753" lon="7.77972">
        <ele>66.713107</ele>
        <time>2020-08-03T12:44:40.570Z</time>
      </trkpt>
      <trkpt lat="63.10756" lon="7.77994">
        <ele>66.830798</ele>
        <time>2020-08-03T12:44:45.583Z</time>
      </trkpt>
      <trkpt lat="63.10759" lon="7.78015">
        <ele>66.953089</ele>
        <time>2020-08-03T12:44:50.563Z</time>
      </trkpt>
      <trkpt lat="63.10764" lon="7.78037">
        <ele>67.083029</ele>
        <time>2020-08-03T12:44:55.594Z</time>
      </trkpt>
      <trkpt lat="63.10768" lon="7.78055">
        <ele>67.193356</ele>
        <time>2020-08-03T12:44:59.568Z</time>
      </trkpt>
      <trkpt lat="63.10772" lon="7.78078">
        <ele>67.325303</ele>
        <time>2020-08-03T12:45:04.590Z</time>
      </trkpt>
      <trkpt lat="63.10776" lon="7.78101">
        <ele>67.455408</ele>
        <time>2020-08-03T12:45:09.571Z</time>
      </trkpt>
      <trkpt lat="63.1078" lon="7.78123">
        <ele>67.58466</ele>
        <time>2020-08-03T12:45:14.571Z</time>
      </trkpt>
      <trkpt lat="63.10783" lon="7.78147">
        <ele>67.718185</ele>
        <time>2020-08-03T12:45:19.587Z</time>
      </trkpt>
      <trkpt lat="63.10786" lon="7.7817">
        <ele>67.954246</ele>
        <time>2020-08-03T12:45:24.589Z</time>
      </trkpt>
      <trkpt lat="63.10789" lon="7.78191">
        <ele>68.387509</ele>
        <time>2020-08-03T12:45:29.591Z</time>
      </trkpt>
      <trkpt lat="63.10793" lon="7.78214">
        <ele>68.86374</ele>
        <time>2020-08-03T12:45:34.573Z</time>
      </trkpt>
      <trkpt lat="63.108" lon="7.78233">
        <ele>69.315125</ele>
        <time>2020-08-03T12:45:39.585Z</time>
      </trkpt>
      <trkpt lat="63.10804" lon="7.78254">
        <ele>69.757715</ele>
        <time>2020-08-03T12:45:44.589Z</time>
      </trkpt>
      <trkpt lat="63.10808" lon="7.78277">
        <ele>70.210519</ele>
        <time>2020-08-03T12:45:49.563Z</time>
      </trkpt>
      <trkpt lat="63.10811" lon="7.78296">
        <ele>70.608797</ele>
        <time>2020-08-03T12:45:53.581Z</time>
      </trkpt>
      <trkpt lat="63.10812" lon="7.78321">
        <ele>71.098176</ele>
        <time>2020-08-03T12:45:57.575Z</time>
      </trkpt>
      <trkpt lat="63.10814" lon="7.78347">
        <ele>71.588689</ele>
        <time>2020-08-03T12:46:01.598Z</time>
      </trkpt>
      <trkpt lat="63.10815" lon="7.78372">
        <ele>72.086852</ele>
        <time>2020-08-03T12:46:05.578Z</time>
      </trkpt>
      <trkpt lat="63.10814" lon="7.78393">
        <ele>72.479104</ele>
        <time>2020-08-03T12:46:08.603Z</time>
      </trkpt>
      <trkpt lat="63.10813" lon="7.78414">
        <ele>72.894379</ele>
        <time>2020-08-03T12:46:11.621Z</time>
      </trkpt>
      <trkpt lat="63.10812" lon="7.78435">
        <ele>73.290259</ele>
        <time>2020-08-03T12:46:14.589Z</time>
      </trkpt>
      <trkpt lat="63.10812" lon="7.78455">
        <ele>73.680848</ele>
        <time>2020-08-03T12:46:17.646Z</time>
      </trkpt>
      <trkpt lat="63.10812" lon="7.7848">
        <ele>74.153241</ele>
        <time>2020-08-03T12:46:21.645Z</time>
      </trkpt>
      <trkpt lat="63.10811" lon="7.785">
        <ele>74.556996</ele>
        <time>2020-08-03T12:46:25.606Z</time>
      </trkpt>
      <trkpt lat="63.10808" lon="7.78523">
        <ele>74.99522</ele>
        <time>2020-08-03T12:46:30.580Z</time>
      </trkpt>
      <trkpt lat="63.10807" lon="7.78543">
        <ele>75.393279</ele>
        <time>2020-08-03T12:46:35.575Z</time>
      </trkpt>
      <trkpt lat="63.10805" lon="7.78563">
        <ele>75.670441</ele>
        <time>2020-08-03T12:46:40.583Z</time>
      </trkpt>
      <trkpt lat="63.10803" lon="7.78583">
        <ele>75.935747</ele>
        <time>2020-08-03T12:46:46.575Z</time>
      </trkpt>
      <trkpt lat="63.10801" lon="7.78602">
        <ele>76.202529</ele>
        <time>2020-08-03T12:46:52.581Z</time>
      </trkpt>
      <trkpt lat="63.10799" lon="7.78624">
        <ele>76.491852</ele>
        <time>2020-08-03T12:46:58.606Z</time>
      </trkpt>
      <trkpt lat="63.10797" lon="7.78643">
        <ele>76.755137</ele>
        <time>2020-08-03T12:47:04.582Z</time>
      </trkpt>
      <trkpt lat="63.10794" lon="7.78666">
        <ele>77.058827</ele>
        <time>2020-08-03T12:47:10.583Z</time>
      </trkpt>
      <trkpt lat="63.10793" lon="7.78687">
        <ele>77.337812</ele>
        <time>2020-08-03T12:47:15.575Z</time>
      </trkpt>
      <trkpt lat="63.10791" lon="7.7871">
        <ele>77.640781</ele>
        <time>2020-08-03T12:47:20.591Z</time>
      </trkpt>
      <trkpt lat="63.10788" lon="7.78731">
        <ele>77.926388</ele>
        <time>2020-08-03T12:47:25.574Z</time>
      </trkpt>
      <trkpt lat="63.10786" lon="7.78752">
        <ele>78.212659</ele>
        <time>2020-08-03T12:47:30.583Z</time>
      </trkpt>
      <trkpt lat="63.10784" lon="7.78775">
        <ele>78.524692</ele>
        <time>2020-08-03T12:47:35.578Z</time>
      </trkpt>
      <trkpt lat="63.10782" lon="7.78798">
        <ele>78.826377</ele>
        <time>2020-08-03T12:47:39.567Z</time>
      </trkpt>
      <trkpt lat="63.10781" lon="7.7882">
        <ele>79.123861</ele>
        <time>2020-08-03T12:47:43.591Z</time>
      </trkpt>
      <trkpt lat="63.1078" lon="7.78844">
        <ele>79.427847</ele>
        <time>2020-08-03T12:47:47.583Z</time>
      </trkpt>
      <trkpt lat="63.10781" lon="7.78867">
        <ele>79.741069</ele>
        <time>2020-08-03T12:47:51.570Z</time>
      </trkpt>
      <trkpt lat="63.10782" lon="7.7889">
        <ele>80.037546</ele>
        <time>2020-08-03T12:47:55.576Z</time>
      </trkpt>
      <trkpt lat="63.10783" lon="7.78915">
        <ele>80.367023</ele>
        <time>2020-08-03T12:47:59.583Z</time>
      </trkpt>
      <trkpt lat="63.10785" lon="7.78935">
        <ele>80.630029</ele>
        <time>2020-08-03T12:48:02.581Z</time>
      </trkpt>
      <trkpt lat="63.10786" lon="7.78955">
        <ele>80.981688</ele>
        <time>2020-08-03T12:48:05.607Z</time>
      </trkpt>
      <trkpt lat="63.10789" lon="7.78974">
        <ele>81.329692</ele>
        <time>2020-08-03T12:48:08.594Z</time>
      </trkpt>
      <trkpt lat="63.10792" lon="7.78994">
        <ele>81.687645</ele>
        <time>2020-08-03T12:48:11.596Z</time>
      </trkpt>
      <trkpt lat="63.10795" lon="7.79014">
        <ele>82.043204</ele>
        <time>2020-08-03T12:48:14.597Z</time>
      </trkpt>
      <trkpt lat="63.10798" lon="7.79038">
        <ele>82.488277</ele>
        <time>2020-08-03T12:48:18.592Z</time>
      </trkpt>
      <trkpt lat="63.10801" lon="7.79063">
        <ele>82.923982</ele>
        <time>2020-08-03T12:48:22.566Z</time>
      </trkpt>
      <trkpt lat="63.10804" lon="7.79084">
        <ele>83.305932</ele>
        <time>2020-08-03T12:48:26.581Z</time>
      </trkpt>
      <trkpt lat="63.10806" lon="7.79104">
        <ele>83.6585</ele>
        <time>2020-08-03T12:48:30.607Z</time>
      </trkpt>
      <trkpt lat="63.10809" lon="7.79125">
        <ele>84.047998</ele>
        <time>2020-08-03T12:48:35.585Z</time>
      </trkpt>
      <trkpt lat="63.10813" lon="7.79148">
        <ele>84.461225</ele>
        <time>2020-08-03T12:48:40.590Z</time>
      </trkpt>
      <trkpt lat="63.10815" lon="7.79168">
        <ele>84.823131</ele>
        <time>2020-08-03T12:48:45.598Z</time>
      </trkpt>
      <trkpt lat="63.10817" lon="7.7919">
        <ele>85.220144</ele>
        <time>2020-08-03T12:48:51.574Z</time>
      </trkpt>
      <trkpt lat="63.10818" lon="7.79213">
        <ele>85.617368</ele>
        <time>2020-08-03T12:48:56.578Z</time>
      </trkpt>
      <trkpt lat="63.10818" lon="7.79234">
        <ele>85.969981</ele>
        <time>2020-08-03T12:49:00.583Z</time>
      </trkpt>
      <trkpt lat="63.10817" lon="7.79259">
        <ele>86.401873</ele>
        <time>2020-08-03T12:49:04.576Z</time>
      </trkpt>
      <trkpt lat="63.10816" lon="7.7928">
        <ele>86.768156</ele>
        <time>2020-08-03T12:49:07.619Z</time>
      </trkpt>
      <trkpt lat="63.10812" lon="7.79303">
        <ele>87.186783</ele>
        <time>2020-08-03T12:49:10.571Z</time>
      </trkpt>
      <trkpt lat="63.10808" lon="7.79324">
        <ele>87.484229</ele>
        <time>2020-08-03T12:49:13.591Z</time>
      </trkpt>
      <trkpt lat="63.10802" lon="7.7934">
        <ele>87.287787</ele>
        <time>2020-08-03T12:49:16.577Z</time>
      </trkpt>
      <trkpt lat="63.10798" lon="7.79365">
        <ele>87.043475</ele>
        <time>2020-08-03T12:49:20.582Z</time>
      </trkpt>
      <trkpt lat="63.10793" lon="7.79385">
        <ele>86.826004</ele>
        <time>2020-08-03T12:49:24.575Z</time>
      </trkpt>
      <trkpt lat="63.10786" lon="7.79403">
        <ele>86.604508</ele>
        <time>2020-08-03T12:49:28.578Z</time>
      </trkpt>
      <trkpt lat="63.10779" lon="7.79424">
        <ele>86.358792</ele>
        <time>2020-08-03T12:49:32.576Z</time>
      </trkpt>
      <trkpt lat="63.10772" lon="7.79444">
        <ele>86.126581</ele>
        <time>2020-08-03T12:49:35.615Z</time>
      </trkpt>
      <trkpt lat="63.10764" lon="7.79461">
        <ele>85.897746</ele>
        <time>2020-08-03T12:49:37.595Z</time>
      </trkpt>
      <trkpt lat="63.10756" lon="7.79481">
        <ele>85.650957</ele>
        <time>2020-08-03T12:49:39.584Z</time>
      </trkpt>
      <trkpt lat="63.1075" lon="7.79502">
        <ele>85.409793</ele>
        <time>2020-08-03T12:49:41.612Z</time>
      </trkpt>
      <trkpt lat="63.10744" lon="7.79523">
        <ele>85.178485</ele>
        <time>2020-08-03T12:49:43.581Z</time>
      </trkpt>
      <trkpt lat="63.10738" lon="7.79543">
        <ele>84.954668</ele>
        <time>2020-08-03T12:49:45.599Z</time>
      </trkpt>
      <trkpt lat="63.10734" lon="7.7956">
        <ele>84.76358</ele>
        <time>2020-08-03T12:49:47.587Z</time>
      </trkpt>
      <trkpt lat="63.10729" lon="7.79582">
        <ele>84.539869</ele>
        <time>2020-08-03T12:49:50.583Z</time>
      </trkpt>
      <trkpt lat="63.10725" lon="7.79601">
        <ele>84.340131</ele>
        <time>2020-08-03T12:49:53.599Z</time>
      </trkpt>
      <trkpt lat="63.10728" lon="7.79623">
        <ele>84.131073</ele>
        <time>2020-08-03T12:49:57.618Z</time>
      </trkpt>
      <trkpt lat="63.10729" lon="7.79644">
        <ele>83.934436</ele>
        <time>2020-08-03T12:50:01.589Z</time>
      </trkpt>
      <trkpt lat="63.10731" lon="7.79668">
        <ele>83.562452</ele>
        <time>2020-08-03T12:50:05.582Z</time>
      </trkpt>
      <trkpt lat="63.10732" lon="7.79688">
        <ele>83.056914</ele>
        <time>2020-08-03T12:50:08.594Z</time>
      </trkpt>
      <trkpt lat="63.10733" lon="7.79708">
        <ele>82.542621</ele>
        <time>2020-08-03T12:50:11.575Z</time>
      </trkpt>
      <trkpt lat="63.10735" lon="7.79734">
        <ele>81.875206</ele>
        <time>2020-08-03T12:50:15.579Z</time>
      </trkpt>
      <trkpt lat="63.10737" lon="7.79757">
        <ele>81.269774</ele>
        <time>2020-08-03T12:50:18.588Z</time>
      </trkpt>
      <trkpt lat="63.1074" lon="7.79777">
        <ele>80.738739</ele>
        <time>2020-08-03T12:50:21.594Z</time>
      </trkpt>
      <trkpt lat="63.10743" lon="7.79805">
        <ele>80.023941</ele>
        <time>2020-08-03T12:50:24.582Z</time>
      </trkpt>
      <trkpt lat="63.10744" lon="7.79833">
        <ele>79.303807</ele>
        <time>2020-08-03T12:50:26.582Z</time>
      </trkpt>
      <trkpt lat="63.10746" lon="7.79863">
        <ele>78.523206</ele>
        <time>2020-08-03T12:50:28.601Z</time>
      </trkpt>
      <trkpt lat="63.10749" lon="7.79889">
        <ele>77.861599</ele>
        <time>2020-08-03T12:50:30.609Z</time>
      </trkpt>
      <trkpt lat="63.10749" lon="7.79909">
        <ele>77.351065</ele>
        <time>2020-08-03T12:50:32.596Z</time>
      </trkpt>
      <trkpt lat="63.10751" lon="7.79933">
        <ele>76.728984</ele>
        <time>2020-08-03T12:50:35.570Z</time>
      </trkpt>
      <trkpt lat="63.10753" lon="7.79955">
        <ele>76.175514</ele>
        <time>2020-08-03T12:50:38.606Z</time>
      </trkpt>
      <trkpt lat="63.10753" lon="7.79975">
        <ele>75.654304</ele>
        <time>2020-08-03T12:50:41.602Z</time>
      </trkpt>
      <trkpt lat="63.10753" lon="7.8">
        <ele>75.021713</ele>
        <time>2020-08-03T12:50:45.572Z</time>
      </trkpt>
      <trkpt lat="63.10755" lon="7.80023">
        <ele>74.425593</ele>
        <time>2020-08-03T12:50:49.615Z</time>
      </trkpt>
      <trkpt lat="63.10755" lon="7.80044">
        <ele>73.906647</ele>
        <time>2020-08-03T12:50:52.611Z</time>
      </trkpt>
      <trkpt lat="63.10756" lon="7.80064">
        <ele>73.559933</ele>
        <time>2020-08-03T12:50:55.576Z</time>
      </trkpt>
      <trkpt lat="63.10757" lon="7.80088">
        <ele>73.310174</ele>
        <time>2020-08-03T12:50:59.577Z</time>
      </trkpt>
      <trkpt lat="63.10757" lon="7.80111">
        <ele>73.07969</ele>
        <time>2020-08-03T12:51:03.591Z</time>
      </trkpt>
      <trkpt lat="63.10757" lon="7.8013">
        <ele>72.874993</ele>
        <time>2020-08-03T12:51:08.616Z</time>
      </trkpt>
      <trkpt lat="63.10757" lon="7.80154">
        <ele>72.628835</ele>
        <time>2020-08-03T12:51:12.578Z</time>
      </trkpt>
      <trkpt lat="63.10759" lon="7.80181">
        <ele>72.345891</ele>
        <time>2020-08-03T12:51:15.586Z</time>
      </trkpt>
      <trkpt lat="63.10761" lon="7.80209">
        <ele>72.053928</ele>
        <time>2020-08-03T12:51:18.598Z</time>
      </trkpt>
      <trkpt lat="63.10762" lon="7.80235">
        <ele>71.787179</ele>
        <time>2020-08-03T12:51:21.577Z</time>
      </trkpt>
      <trkpt lat="63.10764" lon="7.80255">
        <ele>71.574386</ele>
        <time>2020-08-03T12:51:24.578Z</time>
      </trkpt>
      <trkpt lat="63.10767" lon="7.80278">
        <ele>71.322037</ele>
        <time>2020-08-03T12:51:28.636Z</time>
      </trkpt>
      <trkpt lat="63.10773" lon="7.80298">
        <ele>71.07952</ele>
        <time>2020-08-03T12:51:32.575Z</time>
      </trkpt>
      <trkpt lat="63.10778" lon="7.80317">
        <ele>70.845997</ele>
        <time>2020-08-03T12:51:36.574Z</time>
      </trkpt>
      <trkpt lat="63.10782" lon="7.8034">
        <ele>70.593887</ele>
        <time>2020-08-03T12:51:41.599Z</time>
      </trkpt>
      <trkpt lat="63.10785" lon="7.8036">
        <ele>70.372674</ele>
        <time>2020-08-03T12:51:44.567Z</time>
      </trkpt>
      <trkpt lat="63.10787" lon="7.80383">
        <ele>70.135498</ele>
        <time>2020-08-03T12:51:47.634Z</time>
      </trkpt>
      <trkpt lat="63.10788" lon="7.80403">
        <ele>69.922877</ele>
        <time>2020-08-03T12:51:50.574Z</time>
      </trkpt>
      <trkpt lat="63.10791" lon="7.80423">
        <ele>69.710141</ele>
        <time>2020-08-03T12:51:53.594Z</time>
      </trkpt>
      <trkpt lat="63.10792" lon="7.80447">
        <ele>69.656486</ele>
        <time>2020-08-03T12:51:57.623Z</time>
      </trkpt>
      <trkpt lat="63.10793" lon="7.80467">
        <ele>69.827342</ele>
        <time>2020-08-03T12:52:03.597Z</time>
      </trkpt>
      <trkpt lat="63.1079" lon="7.80488">
        <ele>69.999191</ele>
        <time>2020-08-03T12:52:11.597Z</time>
      </trkpt>
      <trkpt lat="63.10789" lon="7.80508">
        <ele>70.168887</ele>
        <time>2020-08-03T12:52:20.599Z</time>
      </trkpt>
      <trkpt lat="63.1079" lon="7.80545">
        <ele>70.471101</ele>
        <time>2020-08-03T12:53:06.607Z</time>
      </trkpt>
      <trkpt lat="63.1079" lon="7.80566">
        <ele>70.642441</ele>
        <time>2020-08-03T12:53:10.587Z</time>
      </trkpt>
      <trkpt lat="63.10789" lon="7.80589">
        <ele>70.831457</ele>
        <time>2020-08-03T12:53:15.576Z</time>
      </trkpt>
      <trkpt lat="63.10788" lon="7.80611">
        <ele>71.011391</ele>
        <time>2020-08-03T12:53:22.629Z</time>
      </trkpt>
      <trkpt lat="63.10786" lon="7.80632">
        <ele>71.183367</ele>
        <time>2020-08-03T12:53:29.586Z</time>
      </trkpt>
      <trkpt lat="63.10786" lon="7.80654">
        <ele>71.361965</ele>
        <time>2020-08-03T12:53:37.582Z</time>
      </trkpt>
      <trkpt lat="63.10784" lon="7.80674">
        <ele>71.527366</ele>
        <time>2020-08-03T12:53:44.610Z</time>
      </trkpt>
      <trkpt lat="63.10782" lon="7.80694">
        <ele>71.700055</ele>
        <time>2020-08-03T12:53:50.595Z</time>
      </trkpt>
      <trkpt lat="63.10778" lon="7.80717">
        <ele>71.894261</ele>
        <time>2020-08-03T12:53:55.584Z</time>
      </trkpt>
      <trkpt lat="63.10778" lon="7.80738">
        <ele>72.070525</ele>
        <time>2020-08-03T12:54:02.578Z</time>
      </trkpt>
      <trkpt lat="63.10779" lon="7.80761">
        <ele>72.260675</ele>
        <time>2020-08-03T12:54:08.575Z</time>
      </trkpt>
      <trkpt lat="63.10775" lon="7.8078">
        <ele>72.424986</ele>
        <time>2020-08-03T12:54:12.591Z</time>
      </trkpt>
      <trkpt lat="63.10771" lon="7.80798">
        <ele>72.596387</ele>
        <time>2020-08-03T12:54:16.603Z</time>
      </trkpt>
      <trkpt lat="63.10765" lon="7.80817">
        <ele>72.784444</ele>
        <time>2020-08-03T12:54:20.585Z</time>
      </trkpt>
      <trkpt lat="63.1076" lon="7.80835">
        <ele>73.035501</ele>
        <time>2020-08-03T12:54:24.582Z</time>
      </trkpt>
      <trkpt lat="63.10764" lon="7.80875">
        <ele>73.569787</ele>
        <time>2020-08-03T12:54:51.588Z</time>
      </trkpt>
      <trkpt lat="63.1077" lon="7.80891">
        <ele>73.84206</ele>
        <time>2020-08-03T12:54:54.586Z</time>
      </trkpt>
      <trkpt lat="63.10779" lon="7.80892">
        <ele>74.116952</ele>
        <time>2020-08-03T12:55:38.573Z</time>
      </trkpt>
      <trkpt lat="63.10789" lon="7.80902">
        <ele>74.435504</ele>
        <time>2020-08-03T12:55:43.601Z</time>
      </trkpt>
      <trkpt lat="63.10798" lon="7.80911">
        <ele>74.704443</ele>
        <time>2020-08-03T12:55:48.591Z</time>
      </trkpt>
      <trkpt lat="63.10798" lon="7.80933">
        <ele>75.00006</ele>
        <time>2020-08-03T12:55:55.581Z</time>
      </trkpt>
      <trkpt lat="63.10801" lon="7.80956">
        <ele>75.320686</ele>
        <time>2020-08-03T12:56:00.603Z</time>
      </trkpt>
      <trkpt lat="63.10799" lon="7.80982">
        <ele>75.660438</ele>
        <time>2020-08-03T12:56:04.582Z</time>
      </trkpt>
      <trkpt lat="63.10797" lon="7.81004">
        <ele>75.962072</ele>
        <time>2020-08-03T12:56:08.609Z</time>
      </trkpt>
      <trkpt lat="63.10794" lon="7.81026">
        <ele>76.269182</ele>
        <time>2020-08-03T12:56:12.630Z</time>
      </trkpt>
      <trkpt lat="63.10792" lon="7.8105">
        <ele>76.590197</ele>
        <time>2020-08-03T12:56:16.589Z</time>
      </trkpt>
      <trkpt lat="63.1079" lon="7.8107">
        <ele>76.859632</ele>
        <time>2020-08-03T12:56:20.593Z</time>
      </trkpt>
      <trkpt lat="63.10788" lon="7.81091">
        <ele>77.143383</ele>
        <time>2020-08-03T12:56:27.576Z</time>
      </trkpt>
      <trkpt lat="63.10786" lon="7.81113">
        <ele>77.433629</ele>
        <time>2020-08-03T12:56:33.606Z</time>
      </trkpt>
      <trkpt lat="63.10785" lon="7.81134">
        <ele>77.713277</ele>
        <time>2020-08-03T12:56:39.582Z</time>
      </trkpt>
      <trkpt lat="63.10782" lon="7.81155">
        <ele>78.006637</ele>
        <time>2020-08-03T12:56:46.596Z</time>
      </trkpt>
      <trkpt lat="63.10781" lon="7.81176">
        <ele>78.25892</ele>
        <time>2020-08-03T12:56:54.579Z</time>
      </trkpt>
      <trkpt lat="63.10781" lon="7.81197">
        <ele>78.487425</ele>
        <time>2020-08-03T12:57:01.602Z</time>
      </trkpt>
      <trkpt lat="63.10781" lon="7.8122">
        <ele>78.745086</ele>
        <time>2020-08-03T12:57:07.601Z</time>
      </trkpt>
      <trkpt lat="63.1078" lon="7.81244">
        <ele>79.011105</ele>
        <time>2020-08-03T12:57:12.582Z</time>
      </trkpt>
      <trkpt lat="63.10779" lon="7.81264">
        <ele>79.237418</ele>
        <time>2020-08-03T12:57:16.573Z</time>
      </trkpt>
      <trkpt lat="63.1078" lon="7.81287">
        <ele>79.498695</ele>
        <time>2020-08-03T12:57:21.582Z</time>
      </trkpt>
      <trkpt lat="63.1078" lon="7.8131">
        <ele>79.763769</ele>
        <time>2020-08-03T12:57:26.601Z</time>
      </trkpt>
      <trkpt lat="63.10781" lon="7.8133">
        <ele>79.987794</ele>
        <time>2020-08-03T12:57:31.577Z</time>
      </trkpt>
      <trkpt lat="63.1078" lon="7.81352">
        <ele>80.228721</ele>
        <time>2020-08-03T12:57:37.581Z</time>
      </trkpt>
      <trkpt lat="63.10782" lon="7.81372">
        <ele>80.461688</ele>
        <time>2020-08-03T12:57:42.607Z</time>
      </trkpt>
      <trkpt lat="63.10783" lon="7.81394">
        <ele>80.704326</ele>
        <time>2020-08-03T12:57:47.582Z</time>
      </trkpt>
      <trkpt lat="63.10784" lon="7.8142">
        <ele>80.998709</ele>
        <time>2020-08-03T12:57:52.607Z</time>
      </trkpt>
      <trkpt lat="63.10786" lon="7.8144">
        <ele>81.220685</ele>
        <time>2020-08-03T12:57:55.582Z</time>
      </trkpt>
      <trkpt lat="63.10786" lon="7.81462">
        <ele>81.477762</ele>
        <time>2020-08-03T12:57:59.607Z</time>
      </trkpt>
      <trkpt lat="63.10789" lon="7.81484">
        <ele>81.72086</ele>
        <time>2020-08-03T12:58:02.582Z</time>
      </trkpt>
      <trkpt lat="63.10791" lon="7.81508">
        <ele>82.000156</ele>
        <time>2020-08-03T12:58:05.589Z</time>
      </trkpt>
      <trkpt lat="63.10793" lon="7.81534">
        <ele>82.294592</ele>
        <time>2020-08-03T12:58:08.607Z</time>
      </trkpt>
      <trkpt lat="63.10796" lon="7.81554">
        <ele>82.526351</ele>
        <time>2020-08-03T12:58:10.580Z</time>
      </trkpt>
      <trkpt lat="63.10799" lon="7.81576">
        <ele>81.954124</ele>
        <time>2020-08-03T12:58:12.612Z</time>
      </trkpt>
      <trkpt lat="63.10803" lon="7.81602">
        <ele>81.296876</ele>
        <time>2020-08-03T12:58:14.621Z</time>
      </trkpt>
      <trkpt lat="63.10807" lon="7.81631">
        <ele>80.567502</ele>
        <time>2020-08-03T12:58:16.589Z</time>
      </trkpt>
      <trkpt lat="63.10813" lon="7.8166">
        <ele>79.823176</ele>
        <time>2020-08-03T12:58:18.606Z</time>
      </trkpt>
      <trkpt lat="63.10818" lon="7.81688">
        <ele>79.101152</ele>
        <time>2020-08-03T12:58:20.597Z</time>
      </trkpt>
      <trkpt lat="63.10822" lon="7.81716">
        <ele>78.389423</ele>
        <time>2020-08-03T12:58:22.588Z</time>
      </trkpt>
      <trkpt lat="63.10827" lon="7.81743">
        <ele>77.684709</ele>
        <time>2020-08-03T12:58:24.580Z</time>
      </trkpt>
      <trkpt lat="63.10832" lon="7.81769">
        <ele>77.009645</ele>
        <time>2020-08-03T12:58:26.594Z</time>
      </trkpt>
      <trkpt lat="63.10835" lon="7.81795">
        <ele>76.369479</ele>
        <time>2020-08-03T12:58:28.624Z</time>
      </trkpt>
      <trkpt lat="63.10837" lon="7.81818">
        <ele>75.808987</ele>
        <time>2020-08-03T12:58:30.584Z</time>
      </trkpt>
      <trkpt lat="63.10839" lon="7.81843">
        <ele>75.211031</ele>
        <time>2020-08-03T12:58:32.619Z</time>
      </trkpt>
      <trkpt lat="63.1084" lon="7.8187">
        <ele>74.545059</ele>
        <time>2020-08-03T12:58:34.579Z</time>
      </trkpt>
      <trkpt lat="63.10841" lon="7.81898">
        <ele>73.874486</ele>
        <time>2020-08-03T12:58:36.587Z</time>
      </trkpt>
      <trkpt lat="63.10841" lon="7.81924">
        <ele>73.243436</ele>
        <time>2020-08-03T12:58:38.586Z</time>
      </trkpt>
      <trkpt lat="63.1084" lon="7.81945">
        <ele>72.944123</ele>
        <time>2020-08-03T12:58:40.583Z</time>
      </trkpt>
      <trkpt lat="63.1084" lon="7.81965">
        <ele>72.857669</ele>
        <time>2020-08-03T12:58:43.579Z</time>
      </trkpt>
      <trkpt lat="63.10853" lon="7.81971">
        <ele>72.726948</ele>
        <time>2020-08-03T12:59:52.603Z</time>
      </trkpt>
      <trkpt lat="63.10862" lon="7.81977">
        <ele>72.641148</ele>
        <time>2020-08-03T13:00:02.590Z</time>
      </trkpt>
      <trkpt lat="63.10876" lon="7.81995">
        <ele>72.481652</ele>
        <time>2020-08-03T13:00:33.614Z</time>
      </trkpt>
      <trkpt lat="63.10879" lon="7.82016">
        <ele>72.388481</ele>
        <time>2020-08-03T13:00:39.591Z</time>
      </trkpt>
      <trkpt lat="63.10879" lon="7.8204">
        <ele>72.283737</ele>
        <time>2020-08-03T13:00:43.573Z</time>
      </trkpt>
      <trkpt lat="63.1088" lon="7.82065">
        <ele>72.176216</ele>
        <time>2020-08-03T13:00:47.577Z</time>
      </trkpt>
      <trkpt lat="63.1088" lon="7.82088">
        <ele>72.078157</ele>
        <time>2020-08-03T13:00:51.588Z</time>
      </trkpt>
      <trkpt lat="63.10881" lon="7.8211">
        <ele>71.982793</ele>
        <time>2020-08-03T13:00:55.594Z</time>
      </trkpt>
      <trkpt lat="63.10883" lon="7.8213">
        <ele>71.891146</ele>
        <time>2020-08-03T13:00:59.585Z</time>
      </trkpt>
      <trkpt lat="63.10885" lon="7.8215">
        <ele>71.803276</ele>
        <time>2020-08-03T13:01:03.588Z</time>
      </trkpt>
      <trkpt lat="63.10887" lon="7.82173">
        <ele>71.704281</ele>
        <time>2020-08-03T13:01:08.630Z</time>
      </trkpt>
      <trkpt lat="63.1089" lon="7.82197">
        <ele>71.596442</ele>
        <time>2020-08-03T13:01:13.608Z</time>
      </trkpt>
      <trkpt lat="63.10891" lon="7.82218">
        <ele>71.505102</ele>
        <time>2020-08-03T13:01:16.583Z</time>
      </trkpt>
      <trkpt lat="63.10893" lon="7.82246">
        <ele>71.384636</ele>
        <time>2020-08-03T13:01:19.609Z</time>
      </trkpt>
      <trkpt lat="63.10898" lon="7.82267">
        <ele>71.28115</ele>
        <time>2020-08-03T13:01:23.568Z</time>
      </trkpt>
      <trkpt lat="63.10902" lon="7.82288">
        <ele>71.575915</ele>
        <time>2020-08-03T13:01:27.640Z</time>
      </trkpt>
      <trkpt lat="63.10906" lon="7.82307">
        <ele>71.881603</ele>
        <time>2020-08-03T13:01:30.568Z</time>
      </trkpt>
      <trkpt lat="63.1091" lon="7.82327">
        <ele>72.201985</ele>
        <time>2020-08-03T13:01:33.619Z</time>
      </trkpt>
      <trkpt lat="63.10914" lon="7.82346">
        <ele>72.50255</ele>
        <time>2020-08-03T13:01:36.601Z</time>
      </trkpt>
      <trkpt lat="63.10916" lon="7.82366">
        <ele>72.815883</ele>
        <time>2020-08-03T13:01:39.587Z</time>
      </trkpt>
      <trkpt lat="63.10918" lon="7.82386">
        <ele>73.11529</ele>
        <time>2020-08-03T13:01:42.570Z</time>
      </trkpt>
      <trkpt lat="63.1092" lon="7.82407">
        <ele>73.423304</ele>
        <time>2020-08-03T13:01:45.572Z</time>
      </trkpt>
      <trkpt lat="63.10923" lon="7.82427">
        <ele>73.729287</ele>
        <time>2020-08-03T13:01:48.578Z</time>
      </trkpt>
      <trkpt lat="63.10924" lon="7.8245">
        <ele>74.069275</ele>
        <time>2020-08-03T13:01:51.602Z</time>
      </trkpt>
      <trkpt lat="63.10926" lon="7.82471">
        <ele>74.381826</ele>
        <time>2020-08-03T13:01:54.589Z</time>
      </trkpt>
      <trkpt lat="63.10928" lon="7.82496">
        <ele>74.747771</ele>
        <time>2020-08-03T13:01:58.588Z</time>
      </trkpt>
      <trkpt lat="63.1093" lon="7.82518">
        <ele>75.074754</ele>
        <time>2020-08-03T13:02:02.605Z</time>
      </trkpt>
      <trkpt lat="63.10932" lon="7.8254">
        <ele>75.407034</ele>
        <time>2020-08-03T13:02:07.592Z</time>
      </trkpt>
      <trkpt lat="63.10934" lon="7.82564">
        <ele>75.772188</ele>
        <time>2020-08-03T13:02:12.567Z</time>
      </trkpt>
      <trkpt lat="63.10938" lon="7.82586">
        <ele>76.114468</ele>
        <time>2020-08-03T13:02:17.624Z</time>
      </trkpt>
      <trkpt lat="63.10944" lon="7.82606">
        <ele>76.467285</ele>
        <time>2020-08-03T13:02:22.605Z</time>
      </trkpt>
      <trkpt lat="63.10951" lon="7.82625">
        <ele>76.824039</ele>
        <time>2020-08-03T13:02:27.597Z</time>
      </trkpt>
      <trkpt lat="63.10958" lon="7.82639">
        <ele>77.126857</ele>
        <time>2020-08-03T13:02:31.594Z</time>
      </trkpt>
      <trkpt lat="63.10966" lon="7.82655">
        <ele>77.371249</ele>
        <time>2020-08-03T13:02:35.603Z</time>
      </trkpt>
      <trkpt lat="63.10972" lon="7.82669">
        <ele>77.585586</ele>
        <time>2020-08-03T13:02:39.594Z</time>
      </trkpt>
      <trkpt lat="63.10981" lon="7.82683">
        <ele>77.830648</ele>
        <time>2020-08-03T13:02:43.579Z</time>
      </trkpt>
      <trkpt lat="63.1099" lon="7.82697">
        <ele>78.100358</ele>
        <time>2020-08-03T13:02:47.598Z</time>
      </trkpt>
      <trkpt lat="63.10998" lon="7.82711">
        <ele>78.334724</ele>
        <time>2020-08-03T13:02:50.570Z</time>
      </trkpt>
      <trkpt lat="63.11006" lon="7.82728">
        <ele>78.602981</ele>
        <time>2020-08-03T13:02:53.593Z</time>
      </trkpt>
      <trkpt lat="63.11014" lon="7.82747">
        <ele>78.879307</ele>
        <time>2020-08-03T13:02:56.597Z</time>
      </trkpt>
      <trkpt lat="63.11022" lon="7.82766">
        <ele>79.143025</ele>
        <time>2020-08-03T13:02:59.587Z</time>
      </trkpt>
      <trkpt lat="63.11029" lon="7.82783">
        <ele>79.397492</ele>
        <time>2020-08-03T13:03:02.612Z</time>
      </trkpt>
      <trkpt lat="63.11037" lon="7.828">
        <ele>79.658298</ele>
        <time>2020-08-03T13:03:05.588Z</time>
      </trkpt>
      <trkpt lat="63.11045" lon="7.82818">
        <ele>79.916577</ele>
        <time>2020-08-03T13:03:08.598Z</time>
      </trkpt>
      <trkpt lat="63.11051" lon="7.82835">
        <ele>80.156591</ele>
        <time>2020-08-03T13:03:11.590Z</time>
      </trkpt>
      <trkpt lat="63.11058" lon="7.82853">
        <ele>80.409548</ele>
        <time>2020-08-03T13:03:14.585Z</time>
      </trkpt>
      <trkpt lat="63.11065" lon="7.82874">
        <ele>80.688665</ele>
        <time>2020-08-03T13:03:17.625Z</time>
      </trkpt>
      <trkpt lat="63.11073" lon="7.82894">
        <ele>80.963747</ele>
        <time>2020-08-03T13:03:20.587Z</time>
      </trkpt>
      <trkpt lat="63.1108" lon="7.82912">
        <ele>81.217527</ele>
        <time>2020-08-03T13:03:23.614Z</time>
      </trkpt>
      <trkpt lat="63.11085" lon="7.82929">
        <ele>81.331501</ele>
        <time>2020-08-03T13:03:27.586Z</time>
      </trkpt>
      <trkpt lat="63.11089" lon="7.82948">
        <ele>81.331501</ele>
        <time>2020-08-03T13:03:32.589Z</time>
      </trkpt>
      <trkpt lat="63.11094" lon="7.82968">
        <ele>81.331501</ele>
        <time>2020-08-03T13:03:38.602Z</time>
      </trkpt>
      <trkpt lat="63.11098" lon="7.82986">
        <ele>81.331501</ele>
        <time>2020-08-03T13:03:43.595Z</time>
      </trkpt>
      <trkpt lat="63.11103" lon="7.83006">
        <ele>81.331501</ele>
        <time>2020-08-03T13:03:48.605Z</time>
      </trkpt>
      <trkpt lat="63.11107" lon="7.83024">
        <ele>81.331501</ele>
        <time>2020-08-03T13:03:52.623Z</time>
      </trkpt>
      <trkpt lat="63.11106" lon="7.83048">
        <ele>81.331501</ele>
        <time>2020-08-03T13:03:57.598Z</time>
      </trkpt>
      <trkpt lat="63.11104" lon="7.83068">
        <ele>81.331501</ele>
        <time>2020-08-03T13:04:01.623Z</time>
      </trkpt>
      <trkpt lat="63.11109" lon="7.83093">
        <ele>81.331501</ele>
        <time>2020-08-03T13:04:05.589Z</time>
      </trkpt>
      <trkpt lat="63.11112" lon="7.83112">
        <ele>81.331501</ele>
        <time>2020-08-03T13:04:07.585Z</time>
      </trkpt>
      <trkpt lat="63.11114" lon="7.83134">
        <ele>81.331501</ele>
        <time>2020-08-03T13:04:09.578Z</time>
      </trkpt>
      <trkpt lat="63.11113" lon="7.83156">
        <ele>81.331501</ele>
        <time>2020-08-03T13:04:11.590Z</time>
      </trkpt>
      <trkpt lat="63.11109" lon="7.83184">
        <ele>81.331501</ele>
        <time>2020-08-03T13:04:14.601Z</time>
      </trkpt>
      <trkpt lat="63.11105" lon="7.83204">
        <ele>81.331501</ele>
        <time>2020-08-03T13:04:18.591Z</time>
      </trkpt>
      <trkpt lat="63.11118" lon="7.83228">
        <ele>81.331501</ele>
        <time>2020-08-03T13:16:13.236Z</time>
      </trkpt>
    </trkseg>
  </trk>
</gpx>